Time;durP1;ratioP1;P1;durP2;ratioP2;P2;SDS_P1;SDS_P2;PMS_P1;PMS_P2;Temp;Humidity;BMP_temperature;BMP_pressure;BME280_temperature;BME280_humidity;BME280_pressure;Samples;Min_cycle;Max_cycle;Signal;HPM_P1;HPM_P2
2021/06/30 00:00:51;;;;;;;0.80;0.70;;;22.10;61.30;;;;;;4942913;28;20026;-80
2021/06/30 00:03:16;;;;;;;0.80;0.80;;;22.10;61.40;;;;;;4960172;28;20496;-80
2021/06/30 00:05:42;;;;;;;0.70;0.70;;;22.10;61.40;;;;;;4967402;28;20121;-79
2021/06/30 00:08:08;;;;;;;0.63;0.63;;;22.00;61.40;;;;;;4953292;28;20039;-81
2021/06/30 00:10:34;;;;;;;1.02;0.80;;;22.00;61.50;;;;;;4939908;28;20450;-81
2021/06/30 00:13:03;;;;;;;0.80;0.80;;;22.00;61.50;;;;;;4961558;28;20031;-81
2021/06/30 00:15:31;;;;;;;1.02;0.80;;;22.00;61.60;;;;;;4947962;28;20042;-81
2021/06/30 00:17:57;;;;;;;1.00;0.77;;;22.00;61.60;;;;;;4952333;28;20034;-80
2021/06/30 00:20:23;;;;;;;0.90;0.68;;;22.00;61.60;;;;;;4948819;28;20027;-81
2021/06/30 00:22:49;;;;;;;1.40;0.70;;;21.90;61.60;;;;;;4951027;28;20033;-80
2021/06/30 00:25:15;;;;;;;0.68;0.68;;;21.90;61.70;;;;;;4965001;28;20027;-81
2021/06/30 00:27:43;;;;;;;0.70;0.70;;;21.90;61.80;;;;;;4948942;28;20026;-81
2021/06/30 00:30:10;;;;;;;0.70;0.70;;;21.80;61.70;;;;;;4953295;28;20031;-81
2021/06/30 00:32:36;;;;;;;1.02;0.93;;;21.80;61.80;;;;;;4949780;28;20072;-82
2021/06/30 00:35:03;;;;;;;0.93;0.77;;;21.80;61.90;;;;;;4949111;28;20102;-82
2021/06/30 00:37:29;;;;;;;0.75;0.70;;;21.80;61.90;;;;;;4930561;28;20030;-82
2021/06/30 00:39:55;;;;;;;0.65;0.60;;;21.80;61.90;;;;;;4951326;28;20037;-82
2021/06/30 00:42:21;;;;;;;0.70;0.60;;;21.80;62.00;;;;;;4954883;28;20041;-82
2021/06/30 00:44:46;;;;;;;0.75;0.70;;;21.80;62.00;;;;;;4932509;28;20417;-83
2021/06/30 00:47:12;;;;;;;0.70;0.70;;;21.80;62.00;;;;;;4968210;28;20027;-83
2021/06/30 00:49:40;;;;;;;0.60;0.60;;;21.70;62.00;;;;;;4957813;28;20054;-83
2021/06/30 00:52:06;;;;;;;0.57;0.57;;;21.70;62.00;;;;;;4934954;28;20039;-83
2021/06/30 00:54:32;;;;;;;0.77;0.60;;;21.70;62.80;;;;;;4946412;28;20054;-83
2021/06/30 00:56:59;;;;;;;0.70;0.70;;;21.70;62.10;;;;;;4947061;28;20382;-82
2021/06/30 00:59:26;;;;;;;0.60;0.60;;;21.60;62.10;;;;;;4948815;28;20034;-82
2021/06/30 01:01:53;;;;;;;0.50;0.50;;;21.60;62.10;;;;;;4937070;28;20038;-82
2021/06/30 01:04:19;;;;;;;0.50;0.50;;;21.60;62.10;;;;;;4953000;28;20475;-82
2021/06/30 01:06:44;;;;;;;0.60;0.60;;;21.60;62.20;;;;;;4937500;28;20065;-82
2021/06/30 01:09:12;;;;;;;0.50;0.50;;;21.60;62.20;;;;;;4964665;28;20039;-82
2021/06/30 01:11:37;;;;;;;0.60;0.60;;;21.60;62.30;;;;;;4949164;28;20647;-82
2021/06/30 01:14:03;;;;;;;0.55;0.55;;;21.60;62.30;;;;;;4945133;29;20122;-82
2021/06/30 01:16:29;;;;;;;1.10;0.70;;;21.50;62.30;;;;;;4946808;28;20026;-82
2021/06/30 01:18:56;;;;;;;0.65;0.65;;;21.50;62.30;;;;;;4927272;28;20098;-83
2021/06/30 01:21:22;;;;;;;0.70;0.70;;;21.50;62.30;;;;;;4955585;28;20027;-82
2021/06/30 01:23:48;;;;;;;0.70;0.70;;;21.50;62.40;;;;;;4935698;28;20105;-82
2021/06/30 01:26:14;;;;;;;0.60;0.60;;;21.50;62.40;;;;;;4940285;29;20460;-82
2021/06/30 01:28:39;;;;;;;0.70;0.70;;;21.50;62.40;;;;;;4949214;28;20039;-82
2021/06/30 01:31:07;;;;;;;0.57;0.57;;;21.40;62.40;;;;;;4967593;28;20022;-81
2021/06/30 01:33:33;;;;;;;0.80;0.70;;;21.40;62.40;;;;;;4967149;28;20043;-82
2021/06/30 01:36:00;;;;;;;0.52;0.50;;;21.40;62.40;;;;;;4940669;28;20518;-82
2021/06/30 01:38:27;;;;;;;0.60;0.60;;;21.40;62.50;;;;;;4978933;28;20026;-82
2021/06/30 01:40:55;;;;;;;0.95;0.80;;;21.40;62.50;;;;;;4934607;28;20028;-81
2021/06/30 01:43:22;;;;;;;0.75;0.70;;;21.40;62.60;;;;;;4944707;29;20035;-82
2021/06/30 01:45:52;;;;;;;0.55;0.55;;;21.30;62.50;;;;;;4941588;28;20043;-82
2021/06/30 01:48:19;;;;;;;0.50;0.50;;;21.30;62.60;;;;;;4948835;28;20054;-82
2021/06/30 01:50:47;;;;;;;0.60;0.60;;;21.30;62.50;;;;;;4955717;28;20031;-81
2021/06/30 01:53:12;;;;;;;0.57;0.57;;;21.30;62.60;;;;;;4966735;28;20046;-82
2021/06/30 01:55:39;;;;;;;0.57;0.57;;;21.30;62.60;;;;;;4939580;28;20515;-82
2021/06/30 01:58:05;;;;;;;0.70;0.70;;;21.20;62.60;;;;;;4961685;28;20105;-82
2021/06/30 02:00:32;;;;;;;0.85;0.60;;;21.20;62.70;;;;;;4970004;28;20041;-82
2021/06/30 02:03:00;;;;;;;0.73;0.73;;;21.20;62.80;;;;;;4935547;28;20475;-81
2021/06/30 02:05:29;;;;;;;1.17;0.70;;;21.20;62.80;;;;;;4942996;28;20038;-82
2021/06/30 02:07:58;;;;;;;0.60;0.60;;;21.20;62.80;;;;;;4956893;28;20026;-82
2021/06/30 02:10:25;;;;;;;0.55;0.55;;;21.20;62.90;;;;;;4952560;28;20037;-82
2021/06/30 02:12:51;;;;;;;0.80;0.80;;;21.20;62.90;;;;;;4938047;29;20039;-82
2021/06/30 02:15:26;;;;;;;0.70;0.70;;;21.10;62.90;;;;;;4958135;28;20027;-82
2021/06/30 02:17:52;;;;;;;0.57;0.57;;;21.10;62.90;;;;;;4968762;28;20451;-82
2021/06/30 02:20:19;;;;;;;0.50;0.50;;;21.10;62.90;;;;;;4948029;28;20021;-82
2021/06/30 02:22:45;;;;;;;0.60;0.60;;;21.10;62.90;;;;;;4963747;28;20062;-82
2021/06/30 02:25:14;;;;;;;0.93;0.85;;;21.10;62.90;;;;;;4965618;28;20038;-81
2021/06/30 02:27:41;;;;;;;0.77;0.77;;;21.10;63.00;;;;;;4980330;28;20039;-81
2021/06/30 02:30:12;;;;;;;0.70;0.70;;;21.10;63.10;;;;;;4987795;28;20046;-81
2021/06/30 02:32:39;;;;;;;1.02;0.73;;;21.00;63.10;;;;;;4980083;28;20417;-82
2021/06/30 02:35:07;;;;;;;0.90;0.90;;;21.00;63.10;;;;;;4957778;28;20109;-82
2021/06/30 02:37:33;;;;;;;0.60;0.60;;;21.00;63.10;;;;;;4952674;28;20078;-82
2021/06/30 02:39:59;;;;;;;0.70;0.70;;;21.00;63.10;;;;;;4958345;28;20459;-82
2021/06/30 02:42:25;;;;;;;0.80;0.73;;;21.00;63.20;;;;;;4950364;28;20324;-82
2021/06/30 02:44:51;;;;;;;0.63;0.63;;;21.00;63.20;;;;;;4949204;28;20026;-82
2021/06/30 02:47:17;;;;;;;0.75;0.75;;;20.90;63.20;;;;;;4952081;28;20031;-82
2021/06/30 02:49:43;;;;;;;0.70;0.70;;;21.00;63.30;;;;;;4915865;28;20055;-82
2021/06/30 02:52:09;;;;;;;0.60;0.57;;;20.90;63.20;;;;;;4953282;28;20125;-82
2021/06/30 02:54:34;;;;;;;0.73;0.73;;;20.90;63.30;;;;;;4969901;28;20050;-82
2021/06/30 02:57:00;;;;;;;0.70;0.70;;;20.90;63.30;;;;;;4952994;28;20443;-83
2021/06/30 02:59:26;;;;;;;0.60;0.60;;;20.90;63.30;;;;;;4958624;28;20556;-83
2021/06/30 03:01:52;;;;;;;0.73;0.73;;;20.80;63.30;;;;;;4950294;28;20126;-82
2021/06/30 03:04:18;;;;;;;0.60;0.60;;;20.90;63.40;;;;;;4941423;28;20034;-82
2021/06/30 03:06:48;;;;;;;0.47;0.47;;;20.90;63.40;;;;;;4961411;28;20085;-84
2021/06/30 03:09:13;;;;;;;0.80;0.80;;;20.80;63.40;;;;;;4952492;28;20125;-83
2021/06/30 03:11:39;;;;;;;0.80;0.80;;;20.80;63.40;;;;;;4953003;28;20206;-83
2021/06/30 03:14:05;;;;;;;0.57;0.57;;;20.80;63.40;;;;;;4962202;28;20038;-82
2021/06/30 03:16:31;;;;;;;0.52;0.52;;;20.80;63.40;;;;;;4933687;28;20034;-83
2021/06/30 03:18:58;;;;;;;0.60;0.60;;;20.80;63.50;;;;;;4966447;28;20031;-82
2021/06/30 03:21:23;;;;;;;0.80;0.70;;;20.70;63.50;;;;;;4968457;28;20488;-82
2021/06/30 03:23:49;;;;;;;0.60;0.60;;;20.70;63.40;;;;;;4958229;28;20031;-82
2021/06/30 03:26:18;;;;;;;0.70;0.70;;;20.70;63.50;;;;;;4938782;28;20090;-82
2021/06/30 03:28:44;;;;;;;0.50;0.50;;;20.70;63.50;;;;;;4939599;28;20030;-83
2021/06/30 03:31:09;;;;;;;0.70;0.70;;;20.70;63.50;;;;;;4952729;28;20380;-82
2021/06/30 03:33:36;;;;;;;0.68;0.68;;;20.70;63.50;;;;;;4946821;29;20047;-83
2021/06/30 03:36:04;;;;;;;0.82;0.70;;;20.70;63.60;;;;;;4954602;28;20030;-82
2021/06/30 03:38:32;;;;;;;0.60;0.60;;;20.70;63.60;;;;;;4969231;28;20034;-82
2021/06/30 03:40:58;;;;;;;0.65;0.65;;;20.70;63.60;;;;;;4980295;28;20031;-81
2021/06/30 03:43:23;;;;;;;0.55;0.55;;;20.60;63.60;;;;;;4947353;29;20465;-83
2021/06/30 03:45:50;;;;;;;0.60;0.60;;;20.60;63.60;;;;;;4955985;28;20584;-83
2021/06/30 03:48:15;;;;;;;0.50;0.50;;;20.60;63.60;;;;;;4984815;28;20137;-82
2021/06/30 03:50:41;;;;;;;0.70;0.70;;;20.60;63.70;;;;;;4962302;28;20038;-82
2021/06/30 03:53:07;;;;;;;0.77;0.77;;;20.60;63.70;;;;;;4946019;28;20042;-82
2021/06/30 03:55:33;;;;;;;0.63;0.63;;;20.60;63.70;;;;;;4962305;28;20034;-82
2021/06/30 03:57:59;;;;;;;0.60;0.60;;;20.50;63.70;;;;;;4944646;28;20122;-82
2021/06/30 04:00:26;;;;;;;0.70;0.70;;;20.60;63.80;;;;;;4967964;28;20038;-83
2021/06/30 04:02:54;;;;;;;0.60;0.60;;;20.50;63.70;;;;;;4963570;28;20027;-82
2021/06/30 04:05:20;;;;;;;0.60;0.60;;;20.50;63.80;;;;;;4946923;28;20027;-83
2021/06/30 04:07:46;;;;;;;0.85;0.85;;;20.50;63.80;;;;;;4976143;28;20038;-82
2021/06/30 04:10:12;;;;;;;0.60;0.60;;;20.50;63.80;;;;;;4954559;28;20026;-82
2021/06/30 04:12:38;;;;;;;0.60;0.60;;;20.50;63.80;;;;;;4964401;28;20113;-83
2021/06/30 04:15:05;;;;;;;0.65;0.65;;;20.50;63.80;;;;;;4963655;28;20058;-83
2021/06/30 04:17:30;;;;;;;0.45;0.45;;;20.50;63.90;;;;;;4934861;28;20031;-83
2021/06/30 04:19:56;;;;;;;0.52;0.52;;;20.50;63.90;;;;;;4946478;28;20044;-83
2021/06/30 04:22:22;;;;;;;0.68;0.68;;;20.40;63.90;;;;;;4924901;28;20495;-83
2021/06/30 04:24:48;;;;;;;0.80;0.80;;;20.40;63.90;;;;;;4967497;28;20026;-83
2021/06/30 04:27:14;;;;;;;0.50;0.50;;;20.40;63.90;;;;;;4960836;28;20038;-82
2021/06/30 04:29:39;;;;;;;0.68;0.68;;;20.40;63.90;;;;;;4924045;28;20035;-82
2021/06/30 04:32:06;;;;;;;0.60;0.60;;;20.40;63.90;;;;;;4948551;28;20022;-83
2021/06/30 04:34:31;;;;;;;0.70;0.70;;;20.40;63.90;;;;;;4955466;28;20106;-83
2021/06/30 04:36:57;;;;;;;0.70;0.70;;;20.40;64.00;;;;;;4948372;28;20030;-82
2021/06/30 04:39:23;;;;;;;0.50;0.50;;;20.30;63.90;;;;;;4943639;28;20019;-82
2021/06/30 04:41:49;;;;;;;0.50;0.50;;;20.30;64.00;;;;;;4951533;28;20046;-82
2021/06/30 04:44:15;;;;;;;0.60;0.60;;;20.30;64.00;;;;;;4933478;29;20507;-83
2021/06/30 04:46:40;;;;;;;0.88;0.88;;;20.30;64.00;;;;;;4959300;28;20043;-87
2021/06/30 04:49:06;;;;;;;1.17;0.80;;;20.30;64.00;;;;;;4947973;28;20055;-90
2021/06/30 04:51:32;;;;;;;0.70;0.70;;;20.30;64.00;;;;;;4940816;28;20133;-89
2021/06/30 04:53:58;;;;;;;0.70;0.70;;;20.30;64.00;;;;;;4976534;28;20035;-87
2021/06/30 04:56:27;;;;;;;1.23;1.02;;;20.30;64.10;;;;;;4969528;28;20022;-86
2021/06/30 04:58:58;;;;;;;0.85;0.80;;;20.30;64.10;;;;;;4964850;28;20108;-90
2021/06/30 05:01:33;;;;;;;0.60;0.60;;;20.20;64.10;;;;;;4967939;28;20031;-89
2021/06/30 05:04:09;;;;;;;0.70;0.70;;;20.20;64.10;;;;;;4941704;28;20027;-87
2021/06/30 05:06:44;;;;;;;0.80;0.80;;;20.20;64.10;;;;;;4955283;28;20058;-89
2021/06/30 05:09:13;;;;;;;0.80;0.80;;;20.20;64.10;;;;;;4967787;28;20069;-88
2021/06/30 05:11:39;;;;;;;0.82;0.82;;;20.20;64.10;;;;;;4965174;28;20022;-88
2021/06/30 05:14:05;;;;;;;0.77;0.77;;;20.20;64.10;;;;;;4945751;29;20035;-87
2021/06/30 05:16:31;;;;;;;0.63;0.63;;;20.20;64.20;;;;;;4982425;28;20034;-87
2021/06/30 05:18:57;;;;;;;0.77;0.77;;;20.20;64.20;;;;;;4970938;28;20469;-89
2021/06/30 05:21:23;;;;;;;1.10;1.00;;;20.10;64.20;;;;;;4931760;28;20110;-86
2021/06/30 05:23:49;;;;;;;0.80;0.80;;;20.10;64.50;;;;;;4948684;28;20456;-86
2021/06/30 05:26:16;;;;;;;1.02;0.82;;;20.20;64.30;;;;;;4971779;28;20096;-89
2021/06/30 05:28:42;;;;;;;0.70;0.70;;;20.10;64.30;;;;;;4947260;28;20117;-86
2021/06/30 05:31:07;;;;;;;0.80;0.80;;;20.10;64.30;;;;;;4957217;28;20432;-88
2021/06/30 05:33:33;;;;;;;1.05;1.02;;;20.10;64.30;;;;;;4921007;28;20121;-89
2021/06/30 05:35:59;;;;;;;1.05;0.98;;;20.10;64.30;;;;;;4979039;28;20037;-89
2021/06/30 05:38:25;;;;;;;1.00;0.93;;;20.10;64.30;;;;;;4955414;28;20027;-88
2021/06/30 05:40:51;;;;;;;1.73;1.00;;;20.10;64.30;;;;;;4952684;28;20026;-87
2021/06/30 05:43:17;;;;;;;0.82;0.82;;;20.10;64.30;;;;;;4957214;28;20037;-88
2021/06/30 05:45:44;;;;;;;1.48;1.10;;;20.10;64.40;;;;;;4931621;28;20058;-88
2021/06/30 05:48:10;;;;;;;0.98;0.95;;;20.00;64.30;;;;;;4976787;28;20038;-88
2021/06/30 05:50:36;;;;;;;1.10;1.00;;;20.00;64.30;;;;;;4968474;28;20051;-88
2021/06/30 05:53:03;;;;;;;1.05;1.05;;;20.00;64.40;;;;;;4961400;28;20496;-89
2021/06/30 05:55:29;;;;;;;1.17;1.08;;;20.00;64.40;;;;;;4952424;28;20084;-89
2021/06/30 05:57:55;;;;;;;1.30;1.00;;;20.00;64.40;;;;;;4968248;28;20027;-90
2021/06/30 06:00:22;;;;;;;1.00;0.90;;;20.00;64.40;;;;;;4963613;28;20022;-89
2021/06/30 06:02:51;;;;;;;1.20;1.10;;;20.00;64.40;;;;;;4969608;28;20049;-89
2021/06/30 06:05:17;;;;;;;1.08;0.98;;;20.00;64.40;;;;;;4949833;28;20035;-89
2021/06/30 06:07:46;;;;;;;1.33;1.20;;;20.00;64.40;;;;;;4966495;28;20037;-90
2021/06/30 06:10:12;;;;;;;1.10;1.00;;;20.00;64.40;;;;;;4954628;28;20112;-88
2021/06/30 06:12:39;;;;;;;1.23;1.10;;;19.90;64.40;;;;;;4975827;28;20030;-89
2021/06/30 06:15:09;;;;;;;1.20;1.00;;;19.90;64.50;;;;;;4981663;28;20109;-92
2021/06/30 06:17:36;;;;;;;1.10;1.00;;;20.00;64.60;;;;;;4943645;28;20031;-88
2021/06/30 06:20:06;;;;;;;1.30;1.20;;;19.90;64.50;;;;;;4958353;28;20036;-89
2021/06/30 06:22:32;;;;;;;1.10;1.00;;;19.90;64.60;;;;;;4969501;28;20031;-88
2021/06/30 06:24:58;;;;;;;1.27;1.17;;;19.90;64.50;;;;;;4981204;28;20025;-87
2021/06/30 06:27:24;;;;;;;1.33;1.10;;;19.90;64.50;;;;;;4950799;28;20031;-87
2021/06/30 06:29:51;;;;;;;1.20;1.10;;;19.90;64.60;;;;;;4967143;28;20031;-88
2021/06/30 06:32:18;;;;;;;1.25;1.00;;;19.90;64.60;;;;;;4957603;28;20077;-88
2021/06/30 06:34:43;;;;;;;1.50;1.27;;;19.90;64.60;;;;;;4962994;28;20035;-88
2021/06/30 06:37:14;;;;;;;1.10;1.00;;;19.90;64.60;;;;;;4971164;28;20113;-87
2021/06/30 06:39:40;;;;;;;1.65;1.00;;;19.90;64.60;;;;;;4970264;28;20041;-87
2021/06/30 06:42:07;;;;;;;1.25;1.13;;;19.90;64.70;;;;;;4948222;28;20034;-88
2021/06/30 06:44:34;;;;;;;1.20;1.10;;;19.80;64.60;;;;;;4964644;28;20115;-85
2021/06/30 06:47:00;;;;;;;0.88;0.88;;;19.80;64.70;;;;;;4955316;28;20042;-88
2021/06/30 06:49:26;;;;;;;1.10;1.00;;;19.90;64.80;;;;;;4965498;28;20487;-86
2021/06/30 06:51:53;;;;;;;1.10;1.00;;;19.80;64.70;;;;;;4958735;28;20054;-85
2021/06/30 06:54:19;;;;;;;1.17;1.08;;;19.80;64.70;;;;;;4954463;28;20043;-87
2021/06/30 06:56:44;;;;;;;1.20;1.10;;;19.80;64.70;;;;;;4931822;28;20464;-86
2021/06/30 06:59:10;;;;;;;1.45;1.10;;;19.80;64.70;;;;;;4967551;28;20038;-86
2021/06/30 07:01:36;;;;;;;1.48;1.02;;;19.80;64.80;;;;;;4980550;28;20382;-86
2021/06/30 07:04:02;;;;;;;1.20;0.93;;;19.80;64.80;;;;;;4970242;28;20046;-85
2021/06/30 07:06:27;;;;;;;1.13;1.02;;;19.80;64.80;;;;;;4967366;28;20179;-84
2021/06/30 07:08:53;;;;;;;1.13;0.95;;;19.80;64.90;;;;;;4966554;28;20077;-86
2021/06/30 07:11:20;;;;;;;1.20;1.10;;;19.80;64.90;;;;;;4985286;28;20069;-84
2021/06/30 07:13:47;;;;;;;0.93;0.90;;;19.80;64.90;;;;;;4963125;28;20065;-84
2021/06/30 07:16:13;;;;;;;2.15;1.10;;;19.80;65.00;;;;;;4953991;28;20034;-84
2021/06/30 07:18:39;;;;;;;1.10;1.00;;;19.80;65.00;;;;;;4967192;28;20058;-84
2021/06/30 07:21:08;;;;;;;0.88;0.88;;;19.80;65.00;;;;;;4982953;28;20062;-83
2021/06/30 07:23:34;;;;;;;1.98;1.17;;;19.80;65.00;;;;;;4934640;28;20031;-84
2021/06/30 07:26:00;;;;;;;1.67;1.00;;;19.80;65.00;;;;;;4966416;28;20086;-83
2021/06/30 07:28:26;;;;;;;1.25;1.10;;;19.80;65.10;;;;;;4964906;28;20046;-84
2021/06/30 07:30:52;;;;;;;1.10;1.00;;;19.80;65.10;;;;;;4952484;28;20082;-84
2021/06/30 07:33:18;;;;;;;0.88;0.88;;;19.80;65.10;;;;;;4966594;28;20109;-84
2021/06/30 07:35:44;;;;;;;0.90;0.90;;;19.80;65.10;;;;;;4965477;28;20026;-80
2021/06/30 07:38:10;;;;;;;0.98;0.90;;;19.80;65.20;;;;;;4981176;28;20053;-80
2021/06/30 07:40:37;;;;;;;1.30;1.20;;;19.80;65.20;;;;;;4982428;28;20035;-80
2021/06/30 07:43:03;;;;;;;1.20;1.10;;;19.80;65.20;;;;;;4964936;28;20046;-81
2021/06/30 07:45:30;;;;;;;1.30;1.20;;;19.80;65.30;;;;;;4964664;28;20023;-81
2021/06/30 07:47:56;;;;;;;1.10;1.00;;;19.80;65.30;;;;;;4941887;28;20039;-89
2021/06/30 07:50:22;;;;;;;0.90;0.90;;;19.80;65.30;;;;;;4965513;28;20464;-82
2021/06/30 07:52:48;;;;;;;1.10;0.90;;;19.80;65.30;;;;;;4983016;28;20038;-83
2021/06/30 07:55:18;;;;;;;0.95;0.95;;;19.80;65.30;;;;;;4964529;28;20022;-84
2021/06/30 07:57:44;;;;;;;0.95;0.95;;;19.90;65.40;;;;;;4968582;28;20034;-83
2021/06/30 08:00:11;;;;;;;1.02;0.95;;;19.80;65.30;;;;;;4983207;28;20040;-83
2021/06/30 08:02:41;;;;;;;1.25;1.10;;;19.90;66.00;;;;;;4943734;29;20114;-83
2021/06/30 08:05:08;;;;;;;0.98;0.98;;;19.90;65.40;;;;;;4932574;28;20220;-84
2021/06/30 08:07:34;;;;;;;1.10;1.00;;;19.90;65.40;;;;;;4967021;28;20036;-83
2021/06/30 08:10:00;;;;;;;1.30;1.20;;;19.90;65.40;;;;;;4951118;28;20114;-82
2021/06/30 08:12:26;;;;;;;1.45;1.30;;;19.90;65.40;;;;;;4966509;28;20108;-83
2021/06/30 08:14:52;;;;;;;0.88;0.88;;;19.90;65.40;;;;;;4956836;28;20066;-83
2021/06/30 08:17:17;;;;;;;1.20;1.10;;;19.90;65.50;;;;;;4949400;28;20033;-83
2021/06/30 08:19:43;;;;;;;2.28;1.08;;;19.90;65.50;;;;;;4965324;28;20090;-83
2021/06/30 08:22:10;;;;;;;1.38;1.15;;;19.90;65.50;;;;;;4964876;28;20019;-83
2021/06/30 08:24:41;;;;;;;1.10;1.00;;;19.90;65.50;;;;;;4974155;28;20109;-84
2021/06/30 08:27:08;;;;;;;1.45;1.23;;;19.90;65.50;;;;;;4962089;28;20033;-84
2021/06/30 08:29:35;;;;;;;1.20;1.10;;;19.90;65.50;;;;;;4976078;28;20407;-83
2021/06/30 08:32:01;;;;;;;1.15;1.10;;;20.00;65.60;;;;;;4951713;28;20030;-83
2021/06/30 08:34:28;;;;;;;1.38;1.17;;;20.00;65.60;;;;;;4983913;28;20022;-83
2021/06/30 08:36:59;;;;;;;1.20;1.10;;;20.00;65.70;;;;;;4981791;28;20030;-83
2021/06/30 08:39:25;;;;;;;1.15;1.05;;;20.00;65.60;;;;;;4925401;28;20022;-83
2021/06/30 08:41:51;;;;;;;1.25;1.08;;;20.00;65.60;;;;;;4943980;28;20089;-83
2021/06/30 08:44:17;;;;;;;1.20;1.10;;;20.00;65.60;;;;;;4983679;28;20038;-82
2021/06/30 08:46:44;;;;;;;1.10;1.00;;;20.00;65.60;;;;;;4959974;28;20122;-82
2021/06/30 08:49:12;;;;;;;1.20;1.10;;;20.00;65.60;;;;;;4947505;28;20031;-83
2021/06/30 08:51:39;;;;;;;1.23;1.13;;;20.00;65.60;;;;;;4948067;28;20046;-82
2021/06/30 08:54:08;;;;;;;0.95;0.90;;;20.10;65.70;;;;;;4982769;28;20058;-82
2021/06/30 08:56:35;;;;;;;1.42;1.30;;;20.00;65.60;;;;;;4940075;28;20387;-82
2021/06/30 08:59:01;;;;;;;1.23;1.10;;;20.10;65.60;;;;;;4958795;28;20027;-83
2021/06/30 09:01:29;;;;;;;1.30;1.20;;;20.10;65.70;;;;;;4951042;28;20603;-82
2021/06/30 09:03:56;;;;;;;1.30;1.20;;;20.10;65.70;;;;;;4968992;28;20037;-84
2021/06/30 09:06:26;;;;;;;1.30;1.20;;;20.10;65.70;;;;;;4966473;28;20019;-82
2021/06/30 09:08:52;;;;;;;1.75;1.27;;;20.10;65.70;;;;;;4984452;28;20495;-83
2021/06/30 09:11:23;;;;;;;1.20;1.08;;;20.10;65.60;;;;;;4976110;28;20031;-83
2021/06/30 09:13:50;;;;;;;1.20;1.10;;;20.10;65.70;;;;;;4952423;28;20050;-83
2021/06/30 09:16:16;;;;;;;1.30;1.20;;;20.10;65.60;;;;;;4967691;28;20062;-83
2021/06/30 09:18:43;;;;;;;1.27;1.17;;;20.10;65.60;;;;;;4935185;28;20058;-83
2021/06/30 09:21:31;;;;;;;1.20;1.10;;;20.10;65.60;;;;;;4948456;28;20030;-83
2021/06/30 09:24:01;;;;;;;1.25;1.15;;;20.10;65.70;;;;;;4975686;28;20089;-82
2021/06/30 09:26:31;;;;;;;1.25;1.15;;;20.10;65.60;;;;;;4976713;28;20030;-82
2021/06/30 09:29:09;;;;;;;1.55;1.27;;;20.10;65.60;;;;;;4955483;28;20022;-83
2021/06/30 09:31:37;;;;;;;1.27;1.15;;;20.10;65.70;;;;;;4963018;28;20049;-83
2021/06/30 09:34:04;;;;;;;1.17;1.08;;;20.10;65.60;;;;;;4966933;28;20097;-82
2021/06/30 09:36:42;;;;;;;1.40;1.30;;;20.10;65.60;;;;;;4943427;28;20043;-81
2021/06/30 09:39:10;;;;;;;1.40;1.30;;;20.10;65.70;;;;;;4976177;28;20122;-82
2021/06/30 09:41:38;;;;;;;1.40;1.30;;;20.20;65.70;;;;;;4948425;29;20026;-83
2021/06/30 09:44:06;;;;;;;1.30;1.20;;;20.20;65.70;;;;;;4934722;28;20391;-82
2021/06/30 09:46:33;;;;;;;1.30;1.20;;;20.20;65.70;;;;;;4965393;28;20367;-82
2021/06/30 09:49:02;;;;;;;1.45;1.35;;;20.20;65.70;;;;;;4958353;28;20042;-82
2021/06/30 09:51:27;;;;;;;1.30;1.20;;;20.20;65.70;;;;;;4969462;28;20398;-83
2021/06/30 09:54:02;;;;;;;1.25;1.13;;;20.20;65.60;;;;;;4954796;28;20049;-83
2021/06/30 09:56:34;;;;;;;1.75;1.20;;;20.20;65.70;;;;;;4950343;28;20058;-83
2021/06/30 09:59:09;;;;;;;1.40;1.30;;;20.20;65.70;;;;;;4965873;28;20042;-82
2021/06/30 10:01:35;;;;;;;;;;;20.20;65.60;;;;;;4980131;28;20030;-83
2021/06/30 10:04:01;;;;;;;1.13;1.00;;;20.20;65.40;;;;;;4954213;28;19961;-82
2021/06/30 10:06:30;;;;;;;1.17;1.08;;;20.20;65.40;;;;;;4951692;28;20038;-81
2021/06/30 10:08:57;;;;;;;1.23;1.10;;;20.20;65.60;;;;;;4950756;29;20458;-81
2021/06/30 10:11:25;;;;;;;1.23;1.10;;;20.20;65.60;;;;;;4957065;28;20041;-82
2021/06/30 10:13:51;;;;;;;1.35;1.25;;;20.20;65.60;;;;;;4942285;28;20030;-82
2021/06/30 10:16:19;;;;;;;1.30;1.20;;;20.20;65.60;;;;;;4975329;28;20387;-82
2021/06/30 10:18:47;;;;;;;1.27;1.15;;;20.20;65.60;;;;;;4975226;28;20023;-82
2021/06/30 10:21:15;;;;;;;1.27;1.17;;;20.30;65.70;;;;;;4963579;28;20078;-84
2021/06/30 10:23:41;;;;;;;1.33;1.23;;;20.30;65.70;;;;;;4951112;28;20069;-84
2021/06/30 10:26:07;;;;;;;1.30;1.20;;;20.30;65.70;;;;;;4975285;28;20082;-84
2021/06/30 10:28:33;;;;;;;1.45;1.25;;;20.30;65.70;;;;;;4952667;28;20031;-84
2021/06/30 10:30:59;;;;;;;1.00;1.00;;;20.30;65.70;;;;;;4970288;28;20031;-85
2021/06/30 10:33:34;;;;;;;1.67;1.33;;;20.30;65.70;;;;;;4967431;28;20031;-83
2021/06/30 10:36:00;;;;;;;1.25;1.15;;;20.40;65.80;;;;;;4951593;28;20097;-84
2021/06/30 10:38:56;;;;;;;1.00;1.00;;;20.30;65.60;;;;;;4967022;28;20030;-84
2021/06/30 10:41:42;;;;;;;1.38;1.10;;;20.30;65.80;;;;;;4964206;28;20441;-82
2021/06/30 10:44:15;;;;;;;1.33;1.00;;;20.30;65.70;;;;;;4965928;28;20040;-82
2021/06/30 10:46:42;;;;;;;1.10;1.00;;;20.40;65.70;;;;;;4954255;28;20090;-80
2021/06/30 10:49:14;;;;;;;1.60;1.33;;;20.40;65.70;;;;;;4951969;28;20035;-77
2021/06/30 10:51:57;;;;;;;1.52;1.35;;;20.40;65.80;;;;;;4974293;28;20511;-78
2021/06/30 10:54:32;;;;;;;1.40;1.20;;;20.40;65.90;;;;;;4945058;28;20058;-77
2021/06/30 10:57:21;;;;;;;1.30;1.20;;;20.40;65.80;;;;;;4968831;28;20070;-78
2021/06/30 11:00:16;;;;;;;1.30;1.20;;;20.40;65.90;;;;;;4978010;28;20027;-78
2021/06/30 11:02:43;;;;;;;;;;;20.50;66.00;;;;;;4957689;28;20566;-78
2021/06/30 11:05:14;;;;;;;1.27;1.00;;;20.40;65.60;;;;;;4985212;28;19968;-77
2021/06/30 11:07:44;;;;;;;1.20;1.10;;;20.40;66.30;;;;;;4973275;28;20027;-77
2021/06/30 11:10:16;;;;;;;1.40;1.30;;;20.50;65.90;;;;;;4949119;28;20093;-77
2021/06/30 11:12:59;;;;;;;1.23;1.13;;;20.50;66.00;;;;;;4966040;28;20030;-78
2021/06/30 11:15:40;;;;;;;1.33;1.17;;;20.40;66.00;;;;;;4956974;28;20042;-78
2021/06/30 11:18:25;;;;;;;1.30;1.20;;;20.40;66.00;;;;;;4981219;28;20026;-79
2021/06/30 11:20:53;;;;;;;1.38;1.27;;;20.50;66.00;;;;;;4957783;28;20094;-78
2021/06/30 11:23:23;;;;;;;2.58;1.17;;;20.50;65.90;;;;;;4964955;28;20380;-77
2021/06/30 11:25:51;;;;;;;1.40;1.30;;;20.50;66.00;;;;;;4982573;28;20027;-77
2021/06/30 11:28:34;;;;;;;1.23;1.13;;;20.60;66.00;;;;;;4948867;28;20027;-78
2021/06/30 11:31:27;;;;;;;1.30;1.20;;;20.60;66.10;;;;;;4952574;28;20044;-78
2021/06/30 11:34:13;;;;;;;1.40;1.30;;;20.60;66.10;;;;;;4981373;28;20415;-78
2021/06/30 11:36:41;;;;;;;1.20;1.10;;;20.60;66.00;;;;;;4972572;28;20023;-78
2021/06/30 11:39:14;;;;;;;1.30;1.20;;;20.70;66.00;;;;;;4966451;28;20054;-77
2021/06/30 11:41:51;;;;;;;1.15;1.05;;;20.70;66.00;;;;;;4964622;28;20035;-78
2021/06/30 11:44:20;;;;;;;1.77;1.30;;;20.70;66.00;;;;;;4953440;28;20030;-78
2021/06/30 11:46:48;;;;;;;1.50;1.40;;;20.70;65.90;;;;;;4967838;28;20435;-78
2021/06/30 11:49:19;;;;;;;1.67;1.58;;;20.70;65.90;;;;;;4980465;28;20019;-78
2021/06/30 11:51:56;;;;;;;2.30;1.70;;;20.70;65.90;;;;;;4963338;28;20057;-78
2021/06/30 11:54:25;;;;;;;1.60;1.50;;;20.70;65.90;;;;;;4924761;28;20039;-78
2021/06/30 11:56:51;;;;;;;1.42;1.33;;;20.80;65.80;;;;;;4961438;28;20488;-78
2021/06/30 11:59:27;;;;;;;1.70;1.50;;;20.80;65.80;;;;;;4963186;28;20129;-78
2021/06/30 12:01:54;;;;;;;1.83;1.55;;;20.80;65.80;;;;;;4963105;28;20058;-78
2021/06/30 12:04:23;;;;;;;2.63;1.85;;;20.80;65.80;;;;;;4964094;28;20022;-78
2021/06/30 12:07:00;;;;;;;2.25;1.83;;;20.80;65.80;;;;;;4963897;28;20324;-78
2021/06/30 12:09:28;;;;;;;2.63;1.83;;;20.80;65.80;;;;;;4961493;28;20030;-79
2021/06/30 12:11:58;;;;;;;2.60;1.88;;;20.80;65.60;;;;;;4970698;28;20681;-80
2021/06/30 12:14:27;;;;;;;1.92;1.73;;;20.80;65.60;;;;;;4983917;28;20034;-79
2021/06/30 12:17:02;;;;;;;1.70;1.60;;;20.80;65.60;;;;;;4978595;28;20030;-79
2021/06/30 12:19:40;;;;;;;2.08;1.75;;;20.90;65.70;;;;;;4978180;28;20034;-79
2021/06/30 12:22:23;;;;;;;2.33;2.13;;;20.80;65.60;;;;;;4957256;28;20122;-78
2021/06/30 12:24:53;;;;;;;2.60;1.90;;;20.80;65.60;;;;;;4964991;28;20057;-78
2021/06/30 12:27:19;;;;;;;2.08;1.83;;;20.90;65.40;;;;;;4978821;28;20018;-79
2021/06/30 12:29:55;;;;;;;2.20;1.95;;;20.90;65.40;;;;;;4965636;28;20026;-78
2021/06/30 12:32:21;;;;;;;2.25;2.05;;;20.80;65.40;;;;;;4964142;28;20576;-79
2021/06/30 12:34:47;;;;;;;2.90;2.22;;;20.90;65.30;;;;;;4989282;28;20111;-79
2021/06/30 12:37:24;;;;;;;2.67;2.00;;;20.90;65.30;;;;;;4940608;28;20037;-80
2021/06/30 12:39:52;;;;;;;2.25;2.05;;;20.90;65.40;;;;;;4982235;28;20116;-79
2021/06/30 12:42:18;;;;;;;2.40;2.00;;;20.90;65.20;;;;;;4944696;29;20389;-79
2021/06/30 12:44:58;;;;;;;2.15;1.90;;;20.80;65.10;;;;;;4979208;28;20046;-79
2021/06/30 12:47:26;;;;;;;2.58;2.28;;;20.90;65.30;;;;;;4959688;28;20068;-79
2021/06/30 12:50:07;;;;;;;2.40;2.00;;;20.90;65.10;;;;;;4951324;28;20121;-79
2021/06/30 12:52:33;;;;;;;2.13;1.80;;;20.90;65.20;;;;;;4968072;28;20105;-78